Time;durP1;ratioP1;P1;durP2;ratioP2;P2;SDS_P1;SDS_P2;PMS_P1;PMS_P2;Temp;Humidity;BMP_temperature;BMP_pressure;BME280_temperature;BME280_humidity;BME280_pressure;Samples;Min_cycle;Max_cycle;Signal;HPM_P1;HPM_P2
2022/04/27 00:00:31;;;;;;;4.57;1.85;;;;;;;13.70;49.71;93722.47;4980047;28;20045;-69
2022/04/27 00:02:57;;;;;;;2.47;1.90;;;;;;;14.06;49.88;93771.69;4992500;28;20069;-70
2022/04/27 00:05:23;;;;;;;3.25;2.20;;;;;;;13.97;49.71;93776.38;4975008;28;20034;-70
2022/04/27 00:07:48;;;;;;;2.78;1.95;;;;;;;14.00;49.47;93776.50;4987792;28;20072;-69
2022/04/27 00:10:14;;;;;;;2.65;2.03;;;;;;;14.01;49.69;93779.94;4987847;28;20112;-71
2022/04/27 00:12:40;;;;;;;3.03;1.92;;;;;;;13.82;49.57;93753.78;4988725;28;20061;-71
2022/04/27 00:15:07;;;;;;;4.18;2.05;;;;;;;13.86;49.50;93762.69;4982702;28;20041;-70
2022/04/27 00:17:33;;;;;;;6.78;2.42;;;;;;;13.95;49.54;93783.94;4985427;28;20018;-70
2022/04/27 00:19:58;;;;;;;6.82;3.35;;;;;;;13.83;49.74;93759.91;4978665;28;20036;-69
2022/04/27 00:22:24;;;;;;;5.50;3.03;;;;;;;13.92;49.37;93776.59;4987588;28;20033;-69
2022/04/27 00:24:49;;;;;;;4.25;1.83;;;;;;;13.86;49.42;93777.94;4984956;28;20050;-70
2022/04/27 00:27:15;;;;;;;2.78;2.13;;;;;;;13.85;49.38;93781.72;4985089;28;20041;-70
2022/04/27 00:29:41;;;;;;;3.22;1.90;;;;;;;13.68;49.92;93780.84;4984748;28;20553;-69
2022/04/27 00:32:07;;;;;;;4.05;2.17;;;;;;;13.70;49.81;93775.13;4982763;28;20096;-69
2022/04/27 00:34:32;;;;;;;2.88;2.08;;;;;;;13.63;49.88;93775.72;4991138;28;20084;-70
2022/04/27 00:36:57;;;;;;;3.03;2.15;;;;;;;13.63;49.74;93789.06;4979247;28;20057;-69
2022/04/27 00:39:23;;;;;;;6.28;2.00;;;;;;;13.62;49.67;93781.38;4989020;28;20045;-70
2022/04/27 00:42:00;;;;;;;3.03;2.13;;;;;;;13.59;49.74;93785.47;4984409;28;20528;-70
2022/04/27 00:44:31;;;;;;;4.65;3.50;;;;;;;13.38;50.02;93768.72;4990461;28;20144;-70
2022/04/27 00:46:56;;;;;;;2.90;1.95;;;;;;;13.38;50.09;93779.41;4993835;28;20030;-70
2022/04/27 00:49:22;;;;;;;3.78;2.75;;;;;;;13.40;50.46;93790.53;4983365;28;20595;-69
2022/04/27 00:51:49;;;;;;;4.20;2.03;;;;;;;13.33;50.25;93787.63;4988154;28;20038;-69
2022/04/27 00:54:14;;;;;;;2.35;2.15;;;;;;;13.41;50.01;93784.09;4989748;28;20034;-70
2022/04/27 00:56:42;;;;;;;3.70;2.22;;;;;;;13.38;50.17;93789.31;4989616;28;20045;-71
2022/04/27 00:59:08;;;;;;;2.88;1.83;;;;;;;13.30;50.14;93793.63;4986852;28;20033;-69
2022/04/27 01:01:34;;;;;;;2.60;1.95;;;;;;;13.26;50.45;93787.38;4991827;28;20034;-71
2022/04/27 01:04:00;;;;;;;3.85;2.08;;;;;;;13.11;50.36;93770.09;4990711;28;20059;-70
2022/04/27 01:06:25;;;;;;;3.00;2.10;;;;;;;13.32;50.44;93786.06;4993090;28;20112;-70
2022/04/27 01:08:51;;;;;;;2.25;2.05;;;;;;;13.29;50.31;93781.41;5001488;28;20087;-70
2022/04/27 01:11:17;;;;;;;2.33;2.03;;;;;;;13.16;50.44;93774.44;5005120;28;20792;-70
2022/04/27 01:13:42;;;;;;;3.13;1.83;;;;;;;13.24;50.33;93781.63;5007990;28;20041;-71
2022/04/27 01:16:08;;;;;;;3.47;2.97;;;;;;;13.24;50.37;93781.63;4994681;28;20048;-70
2022/04/27 01:18:34;;;;;;;3.70;2.03;;;;;;;13.12;50.39;93769.00;5001383;28;20119;-71
2022/04/27 01:21:01;;;;;;;2.47;1.90;;;;;;;13.09;50.50;93761.66;5005616;28;20379;-69
2022/04/27 01:23:26;;;;;;;2.35;1.70;;;;;;;13.16;50.73;93782.47;4988180;28;20127;-70
2022/04/27 01:26:01;;;;;;;4.07;2.03;;;;;;;13.10;50.59;93783.81;4992930;28;20022;-70
2022/04/27 01:28:31;;;;;;;3.42;1.70;;;;;;;13.16;50.44;93785.91;4985428;28;20128;-70
2022/04/27 01:31:02;;;;;;;3.50;1.83;;;;;;;13.13;50.94;93785.81;4990406;28;20042;-70
2022/04/27 01:33:29;;;;;;;2.67;1.80;;;;;;;13.06;50.94;93788.22;4987365;28;20870;-69
2022/04/27 01:35:55;;;;;;;3.83;1.90;;;;;;;12.99;51.03;93771.97;4996096;28;20038;-70
2022/04/27 01:38:20;;;;;;;4.30;2.20;;;;;;;12.87;50.78;93752.13;4975305;28;20486;-70
2022/04/27 01:40:47;;;;;;;3.38;2.03;;;;;;;13.06;50.92;93782.88;4996336;28;20556;-69
2022/04/27 01:43:16;;;;;;;6.63;2.58;;;;;;;12.89;50.87;93751.78;4987284;28;20127;-70
2022/04/27 01:45:45;;;;;;;3.90;1.92;;;;;;;13.02;51.04;93777.41;4991610;28;20089;-69
2022/04/27 01:48:11;;;;;;;1.85;1.75;;;;;;;12.95;51.30;93771.06;4990639;28;20096;-70
2022/04/27 01:50:37;;;;;;;2.55;1.98;;;;;;;12.88;50.92;93760.91;4994272;28;20153;-70
2022/04/27 01:55:47;;;;;;;5.40;2.00;;;;;;;12.92;51.01;93777.81;4989255;28;20040;-70
2022/04/27 01:58:12;;;;;;;7.05;2.35;;;;;;;12.90;51.19;93780.06;4989401;28;20029;-70
2022/04/27 02:00:38;;;;;;;4.32;2.28;;;;;;;12.91;50.94;93776.25;4982718;28;20038;-69
2022/04/27 02:03:03;;;;;;;3.13;2.33;;;;;;;12.93;51.08;93774.06;4990925;28;20033;-69
2022/04/27 02:05:29;;;;;;;5.45;1.98;;;;;;;12.72;51.18;93750.06;4982532;28;20772;-70
2022/04/27 02:07:55;;;;;;;2.78;2.25;;;;;;;12.79;51.66;93769.00;4988832;28;20030;-70
2022/04/27 02:10:20;;;;;;;7.25;2.00;;;;;;;12.77;51.68;93765.09;4988398;28;20092;-72
2022/04/27 02:12:45;;;;;;;7.30;2.10;;;;;;;12.74;51.56;93774.53;4987480;28;21007;-73
2022/04/27 02:15:11;;;;;;;4.35;1.75;;;;;;;12.68;51.66;93777.72;4986673;28;20153;-71
2022/04/27 02:17:36;;;;;;;2.42;2.00;;;;;;;12.70;51.64;93773.63;4987268;28;20792;-69
2022/04/27 02:20:03;;;;;;;7.75;2.45;;;;;;;12.72;51.19;93768.72;4984806;28;20116;-70
2022/04/27 02:22:28;;;;;;;4.35;2.22;;;;;;;12.55;51.22;93742.19;4988675;28;20049;-70
2022/04/27 02:24:53;;;;;;;3.63;1.83;;;;;;;12.57;51.06;93753.28;4986656;28;20489;-70
2022/04/27 02:27:20;;;;;;;5.97;2.20;;;;;;;12.67;50.91;93770.81;4985529;28;20036;-70
2022/04/27 02:29:45;;;;;;;6.65;2.00;;;;;;;12.70;50.95;93772.84;4987425;28;21332;-69
2022/04/27 02:32:10;;;;;;;2.92;2.15;;;;;;;12.50;51.39;93766.38;4989407;28;20033;-70
2022/04/27 02:34:36;;;;;;;2.28;1.92;;;;;;;12.52;51.40;93779.41;4986392;28;20041;-70
2022/04/27 02:37:03;;;;;;;3.55;1.85;;;;;;;12.55;51.60;93774.19;4987879;28;20093;-70
2022/04/27 02:39:29;;;;;;;3.75;2.47;;;;;;;12.61;51.48;93780.94;4988557;28;20038;-70
2022/04/27 02:41:54;;;;;;;3.03;1.88;;;;;;;12.65;51.43;93783.72;4990170;28;20046;-69
2022/04/27 02:44:20;;;;;;;2.25;1.83;;;;;;;12.65;51.20;93783.72;4989174;28;20910;-70
2022/04/27 02:46:45;;;;;;;2.67;2.00;;;;;;;12.52;51.56;93780.16;4987631;28;20320;-71
2022/04/27 02:51:54;;;;;;;6.68;2.33;;;;;;;12.47;51.78;93786.47;4987956;28;20088;-71
2022/04/27 02:54:22;;;;;;;2.17;1.98;;;;;;;12.43;51.55;93782.13;4989027;28;20042;-70
2022/04/27 02:56:48;;;;;;;3.97;2.58;;;;;;;12.40;51.50;93782.78;4986538;28;20072;-70
2022/04/27 02:59:15;;;;;;;4.40;2.17;;;;;;;12.41;51.68;93773.66;4985629;28;20308;-70
2022/04/27 03:01:41;;;;;;;3.25;2.53;;;;;;;12.38;52.11;93774.31;4987891;28;21118;-72
2022/04/27 03:04:08;;;;;;;2.67;2.13;;;;;;;12.34;52.10;93784.06;4983606;28;20049;-70
2022/04/27 03:06:33;;;;;;;2.17;1.70;;;;;;;12.33;52.16;93782.50;4986511;28;20041;-69
2022/04/27 03:08:59;;;;;;;3.38;2.40;;;;;;;12.33;52.20;93779.81;5001659;28;20041;-70
2022/04/27 03:11:25;;;;;;;4.30;1.98;;;;;;;12.32;52.31;93780.97;4986617;28;20486;-70
2022/04/27 03:13:50;;;;;;;3.35;2.25;;;;;;;12.21;52.53;93769.09;4986452;28;20091;-69
2022/04/27 03:16:16;;;;;;;6.10;3.20;;;;;;;12.30;52.51;93783.16;4978434;28;20485;-69
2022/04/27 03:18:42;;;;;;;3.10;2.00;;;;;;;12.29;52.22;93786.91;4984371;28;20046;-69
2022/04/27 03:21:09;;;;;;;2.83;2.05;;;;;;;12.14;52.26;93760.81;4986540;28;20091;-70
2022/04/27 03:23:34;;;;;;;3.65;2.22;;;;;;;12.19;52.34;93773.97;4983350;28;20453;-69
2022/04/27 03:26:00;;;;;;;4.68;3.55;;;;;;;12.27;52.22;93797.16;4987991;28;20076;-70
2022/04/27 03:28:25;;;;;;;4.38;2.33;;;;;;;12.25;52.25;93792.13;4979877;28;20036;-71
2022/04/27 03:30:50;;;;;;;3.33;2.08;;;;;;;12.10;52.26;93782.03;4988658;28;20041;-70
2022/04/27 03:33:17;;;;;;;3.55;2.03;;;;;;;12.16;52.58;93794.06;4982032;28;20061;-70
2022/04/27 03:35:42;;;;;;;2.90;2.10;;;;;;;12.19;52.44;93801.41;4984597;28;20481;-70
2022/04/27 03:38:08;;;;;;;2.92;1.98;;;;;;;12.24;52.25;93806.56;4982663;28;20087;-71
2022/04/27 03:40:35;;;;;;;4.85;1.92;;;;;;;12.14;52.34;93787.47;4987706;28;20095;-70
2022/04/27 03:43:00;;;;;;;2.20;1.95;;;;;;;12.09;52.37;93787.66;4988714;28;20070;-71
2022/04/27 03:45:26;;;;;;;1.80;1.70;;;;;;;12.32;52.11;93812.97;4983477;28;20132;-71
2022/04/27 03:47:51;;;;;;;2.63;1.92;;;;;;;12.21;52.54;93806.44;4988451;28;20375;-70
2022/04/27 03:50:17;;;;;;;2.50;1.85;;;;;;;12.27;52.43;93815.81;4989647;28;20028;-70
2022/04/27 03:52:43;;;;;;;3.88;2.28;;;;;;;12.26;52.84;93814.25;4985396;28;20053;-70
2022/04/27 03:55:08;;;;;;;3.45;2.10;;;;;;;12.08;53.15;93807.44;4978609;28;20404;-69
2022/04/27 03:57:34;;;;;;;3.30;2.65;;;;;;;12.08;53.05;93794.13;4987617;28;20034;-70
2022/04/27 03:59:59;;;;;;;2.35;2.15;;;;;;;12.27;53.20;93823.81;4995546;28;20104;-69
2022/04/27 04:02:24;;;;;;;3.75;2.20;;;;;;;12.25;53.33;93828.66;5001892;28;20033;-70
2022/04/27 04:04:50;;;;;;;3.85;2.20;;;;;;;12.35;53.11;93826.41;4988496;28;20042;-70
2022/04/27 04:07:15;;;;;;;2.45;2.20;;;;;;;12.21;53.49;93811.75;4984634;28;20045;-69
2022/04/27 04:09:41;;;;;;;4.78;3.22;;;;;;;12.28;53.51;93818.13;4992625;28;20091;-69
2022/04/27 04:12:07;;;;;;;3.83;2.70;;;;;;;12.36;53.71;93829.88;4996177;28;20048;-70
2022/04/27 04:14:33;;;;;;;7.13;3.65;;;;;;;12.40;53.74;93830.78;4998044;28;21347;-69
2022/04/27 04:16:59;;;;;;;4.53;2.78;;;;;;;12.58;53.70;93839.44;5012128;28;20049;-69
2022/04/27 04:19:24;;;;;;;5.07;2.65;;;;;;;12.56;54.22;93829.13;5009720;28;20600;-69
2022/04/27 04:21:50;;;;;;;3.42;2.42;;;;;;;12.75;54.25;93842.03;5013598;28;20088;-70
2022/04/27 04:24:15;;;;;;;3.90;3.00;;;;;;;12.86;54.41;93849.31;5015767;28;20029;-70
2022/04/27 04:29:26;;;;;;;5.30;3.57;;;;;;;13.03;54.29;93831.59;5010662;28;20035;-69
2022/04/27 04:31:51;;;;;;;4.60;3.45;;;;;;;12.92;54.07;93793.06;5010907;28;20025;-70
2022/04/27 04:34:16;;;;;;;5.95;3.55;;;;;;;13.31;54.23;93844.06;5014491;28;20128;-69
2022/04/27 04:36:42;;;;;;;7.68;3.90;;;;;;;13.35;54.17;93843.41;5010269;28;20084;-70
2022/04/27 04:39:07;;;;;;;6.53;3.97;;;;;;;13.27;53.93;93839.69;5013486;28;20060;-70
2022/04/27 04:41:32;;;;;;;10.25;3.05;;;;;;;13.35;54.27;93849.50;5011786;28;20545;-69
2022/04/27 04:43:58;;;;;;;4.75;3.88;;;;;;;13.11;54.60;93828.06;5012376;28;20048;-69
2022/04/27 04:46:24;;;;;;;5.72;3.42;;;;;;;13.41;54.55;93858.88;4994138;28;20410;-69
2022/04/27 04:48:49;;;;;;;5.25;3.50;;;;;;;13.53;54.44;93861.59;4990664;28;20531;-69
2022/04/27 04:51:15;;;;;;;7.22;3.47;;;;;;;13.61;54.01;93850.06;4997266;28;20107;-69
2022/04/27 04:53:40;;;;;;;8.35;4.30;;;;;;;13.67;53.72;93843.41;5007738;28;20160;-69
2022/04/27 04:56:05;;;;;;;7.10;3.95;;;;;;;13.83;53.38;93848.91;4988798;28;20034;-69
2022/04/27 04:58:31;;;;;;;4.80;3.67;;;;;;;13.74;53.05;93845.53;4988599;28;20947;-69
2022/04/27 05:00:56;;;;;;;4.18;3.78;;;;;;;13.78;52.73;93846.44;4992293;28;20108;-70
2022/04/27 05:03:22;;;;;;;8.35;4.63;;;;;;;14.01;52.58;93865.50;4990804;28;20165;-69
2022/04/27 05:05:47;;;;;;;5.95;3.40;;;;;;;13.98;52.47;93845.59;4993498;28;20065;-69
2022/04/27 05:08:13;;;;;;;4.32;3.40;;;;;;;14.17;52.21;93874.44;4992588;28;20061;-68
2022/04/27 05:10:38;;;;;;;8.85;3.83;;;;;;;13.93;52.56;93853.81;4987072;28;20100;-69
2022/04/27 05:13:04;;;;;;;7.00;4.07;;;;;;;13.86;52.89;93858.13;4988386;28;20029;-70
2022/04/27 05:15:29;;;;;;;6.13;4.05;;;;;;;14.00;52.49;93872.75;4993395;28;20108;-69
2022/04/27 05:17:55;;;;;;;5.82;3.95;;;;;;;14.18;52.51;93863.41;4989708;28;20569;-69
2022/04/27 05:20:20;;;;;;;7.43;3.97;;;;;;;14.32;51.82;93871.13;4993746;28;21170;-70
2022/04/27 05:22:46;;;;;;;6.85;4.45;;;;;;;14.43;51.48;93871.44;4986981;28;20090;-70
2022/04/27 05:25:11;;;;;;;10.18;4.65;;;;;;;14.25;51.24;93859.41;4991969;28;20034;-69
2022/04/27 05:27:38;;;;;;;9.25;4.80;;;;;;;13.95;51.96;93813.38;4989529;28;20038;-70
2022/04/27 05:32:49;;;;;;;;;;;;;;;14.23;52.82;93872.34;4993788;28;20049;-70
2022/04/27 05:35:14;;;;;;;5.60;4.45;;;;;;;13.35;54.82;93881.56;5009681;28;19917;-70
2022/04/27 05:37:40;;;;;;;5.53;4.20;;;;;;;13.37;55.12;93866.00;5011456;28;20045;-70
2022/04/27 05:40:07;;;;;;;5.93;4.70;;;;;;;13.38;55.07;93874.81;5009176;28;20260;-69
2022/04/27 05:42:35;;;;;;;6.55;4.47;;;;;;;13.44;55.55;93868.16;5000409;28;20129;-69
2022/04/27 05:45:00;;;;;;;8.05;5.20;;;;;;;13.90;54.27;93877.75;4986225;28;20049;-69
2022/04/27 05:47:26;;;;;;;6.15;4.10;;;;;;;14.13;53.36;93858.28;4989581;28;20033;-69
2022/04/27 05:49:52;;;;;;;6.10;4.20;;;;;;;14.38;53.33;93874.31;4995481;28;20027;-71
2022/04/27 05:52:18;;;;;;;6.40;4.13;;;;;;;14.62;52.28;93868.22;4991600;28;20034;-69
2022/04/27 05:54:44;;;;;;;6.00;4.80;;;;;;;14.57;51.95;93867.31;4993917;28;20354;-69
2022/04/27 05:57:09;;;;;;;5.15;3.80;;;;;;;14.64;51.68;93871.34;4986144;28;20612;-70
2022/04/27 05:59:35;;;;;;;4.25;3.85;;;;;;;14.16;52.36;93819.41;4993028;28;20529;-69
2022/04/27 06:02:00;;;;;;;6.45;4.90;;;;;;;14.79;52.30;93858.03;4992309;28;20022;-70
2022/04/27 06:04:26;;;;;;;7.78;4.93;;;;;;;15.07;50.95;93871.47;4985578;28;20100;-69
2022/04/27 06:06:53;;;;;;;11.30;4.95;;;;;;;14.96;51.18;93878.44;4996912;28;20037;-71
2022/04/27 06:09:18;;;;;;;8.48;4.03;;;;;;;15.07;50.49;93859.97;5006040;28;20067;-69
2022/04/27 06:11:44;;;;;;;6.90;3.80;;;;;;;14.53;51.77;93855.72;5003124;28;20409;-69
2022/04/27 06:14:09;;;;;;;5.72;4.18;;;;;;;15.02;50.53;93883.19;4991326;28;21973;-69
2022/04/27 06:16:35;;;;;;;5.05;3.63;;;;;;;15.13;49.88;93872.78;4991377;28;20035;-70
2022/04/27 06:19:01;;;;;;;10.73;4.15;;;;;;;15.22;49.80;93884.16;4992194;28;20043;-69
2022/04/27 06:21:31;;;;;;;5.93;3.95;;;;;;;15.09;50.25;93879.97;4991333;28;20515;-70
2022/04/27 06:23:58;;;;;;;7.57;4.85;;;;;;;15.16;50.10;93861.38;4990733;28;20796;-69
2022/04/27 06:26:23;;;;;;;6.07;4.55;;;;;;;15.06;51.09;93867.22;4988102;28;20494;-70
2022/04/27 06:28:48;;;;;;;7.18;4.78;;;;;;;14.88;51.44;93860.59;4989159;28;20022;-70
2022/04/27 06:31:14;;;;;;;6.85;5.03;;;;;;;15.51;50.47;93882.28;4988516;28;20530;-70
2022/04/27 06:33:39;;;;;;;19.95;10.15;;;;;;;15.15;51.01;93854.50;4991147;28;20053;-69
2022/04/27 06:36:05;;;;;;;9.73;5.53;;;;;;;14.95;51.72;93866.94;4991506;28;20753;-69
2022/04/27 06:38:30;;;;;;;5.88;4.47;;;;;;;15.45;49.95;93882.53;4988799;28;20616;-69
2022/04/27 06:40:56;;;;;;;9.02;5.28;;;;;;;15.70;49.68;93880.50;4994667;28;20034;-70
2022/04/27 06:43:21;;;;;;;7.72;5.78;;;;;;;14.69;51.51;93847.00;5008875;28;20041;-69
2022/04/27 06:45:46;;;;;;;8.38;5.72;;;;;;;14.68;52.79;93882.91;4997871;28;20038;-69
2022/04/27 06:48:12;;;;;;;6.15;5.25;;;;;;;15.26;51.90;93881.56;4988934;28;20036;-70
2022/04/27 06:50:38;;;;;;;8.05;5.75;;;;;;;15.61;51.07;93858.44;4991608;28;21062;-70
2022/04/27 06:53:04;;;;;;;13.50;6.90;;;;;;;15.06;52.02;93879.88;4997946;28;20113;-70
2022/04/27 06:55:30;;;;;;;11.77;5.50;;;;;;;14.60;53.36;93884.63;4990190;28;20091;-71
2022/04/27 06:57:55;;;;;;;8.60;6.18;;;;;;;14.76;52.71;93880.16;4990731;28;20458;-70
2022/04/27 07:00:21;;;;;;;8.25;5.40;;;;;;;14.98;52.52;93881.53;4996383;28;20049;-71
2022/04/27 07:02:47;;;;;;;11.60;5.97;;;;;;;15.28;52.21;93871.28;4991349;28;20030;-69
2022/04/27 07:05:17;;;;;;;7.57;5.63;;;;;;;15.82;51.25;93882.34;4988991;28;20084;-70
2022/04/27 07:07:44;;;;;;;12.48;7.05;;;;;;;15.14;52.29;93881.63;4991666;28;20405;-69
2022/04/27 07:10:12;;;;;;;7.88;6.13;;;;;;;15.48;51.34;93851.59;4983617;28;20042;-69
2022/04/27 07:12:37;;;;;;;10.50;6.72;;;;;;;15.25;52.09;93880.81;4988251;28;20121;-70
2022/04/27 07:15:03;;;;;;;9.13;5.82;;;;;;;15.10;52.69;93875.38;4988118;28;20412;-72
2022/04/27 07:17:28;;;;;;;8.27;5.43;;;;;;;15.40;51.61;93865.91;4986796;28;20564;-70
2022/04/27 07:19:54;;;;;;;12.73;5.85;;;;;;;16.09;50.69;93880.72;4981667;28;20028;-71
2022/04/27 07:22:19;;;;;;;10.52;5.50;;;;;;;16.30;50.19;93876.69;4985671;28;20633;-71
2022/04/27 07:24:44;;;;;;;10.38;5.40;;;;;;;15.83;50.20;93830.28;4981696;28;20041;-70
2022/04/27 07:27:10;;;;;;;10.73;5.97;;;;;;;15.80;51.18;93879.22;4986219;28;20455;-69
2022/04/27 07:29:36;;;;;;;9.68;6.53;;;;;;;15.73;51.78;93873.69;4976762;28;20041;-70
2022/04/27 07:32:02;;;;;;;6.78;5.07;;;;;;;15.94;50.85;93876.16;4983982;28;20509;-69
2022/04/27 07:34:28;;;;;;;8.95;6.20;;;;;;;15.87;50.81;93874.06;4988801;28;20084;-70
2022/04/27 07:36:54;;;;;;;8.93;5.55;;;;;;;16.48;49.54;93870.97;4990153;28;20030;-68
2022/04/27 07:39:19;;;;;;;9.88;6.45;;;;;;;15.93;50.65;93867.31;4988373;28;20534;-70
2022/04/27 07:41:45;;;;;;;9.75;6.55;;;;;;;15.97;50.85;93878.13;4991967;28;20104;-68
2022/04/27 07:44:14;;;;;;;6.97;5.78;;;;;;;16.20;49.78;93882.56;4990824;28;20054;-69
2022/04/27 07:46:39;;;;;;;14.05;6.68;;;;;;;16.13;49.77;93881.63;4987687;28;20489;-69
2022/04/27 07:49:04;;;;;;;9.38;6.25;;;;;;;16.33;49.28;93856.44;4990107;28;20631;-70
2022/04/27 07:51:30;;;;;;;11.57;5.95;;;;;;;16.33;49.30;93878.69;4985177;28;20843;-69
2022/04/27 07:53:55;;;;;;;8.73;5.65;;;;;;;16.65;48.80;93876.75;4990532;28;20052;-72
2022/04/27 07:56:21;;;;;;;10.00;5.97;;;;;;;16.90;48.69;93880.00;4993224;28;20030;-68
2022/04/27 07:58:46;;;;;;;11.90;7.60;;;;;;;16.02;49.93;93870.63;4988873;28;20112;-71
2022/04/27 08:01:11;;;;;;;8.98;5.82;;;;;;;16.41;49.57;93852.03;4991911;28;20465;-69
2022/04/27 08:03:37;;;;;;;13.55;7.20;;;;;;;16.85;48.46;93869.53;4989972;28;20037;-69
2022/04/27 08:06:04;;;;;;;14.02;6.47;;;;;;;17.17;47.56;93872.91;4993541;28;20069;-68
2022/04/27 08:08:30;;;;;;;8.05;5.60;;;;;;;17.07;47.58;93870.75;4993117;28;20037;-70
2022/04/27 08:10:56;;;;;;;9.35;5.45;;;;;;;16.57;48.74;93868.91;4983897;28;20044;-69
2022/04/27 08:13:21;;;;;;;8.57;5.63;;;;;;;16.81;48.42;93874.03;4992254;28;20450;-68
2022/04/27 08:15:47;;;;;;;12.32;6.18;;;;;;;16.34;49.10;93874.09;4990692;28;20077;-71
2022/04/27 08:18:12;;;;;;;8.95;5.28;;;;;;;16.59;49.04;93872.00;4990583;28;20110;-69
2022/04/27 08:23:29;;;;;;;7.40;6.13;;;;;;;15.69;49.35;93824.56;4990475;28;20469;-70
2022/04/27 08:25:56;;;;;;;8.55;5.97;;;;;;;16.20;48.70;93860.31;4996706;28;20056;-70
2022/04/27 08:28:22;;;;;;;7.35;5.30;;;;;;;16.52;48.87;93861.88;4991070;28;20506;-70
2022/04/27 08:30:48;;;;;;;7.43;4.70;;;;;;;16.28;49.04;93870.84;4992947;28;20042;-70
2022/04/27 08:33:14;;;;;;;8.90;4.57;;;;;;;16.69;47.61;93844.59;4988652;28;20049;-70
2022/04/27 08:35:41;;;;;;;14.23;5.68;;;;;;;17.11;46.88;93860.88;4994203;28;20038;-70
2022/04/27 08:38:07;;;;;;;9.15;6.32;;;;;;;17.33;46.28;93862.09;4984664;28;20484;-70
2022/04/27 08:40:38;;;;;;;5.93;5.15;;;;;;;17.37;46.70;93841.44;4994829;28;20077;-71
2022/04/27 08:43:04;;;;;;;7.05;5.03;;;;;;;16.64;47.83;93859.09;4987250;28;20033;-70
2022/04/27 08:45:30;;;;;;;5.55;4.60;;;;;;;16.71;47.61;93847.72;4991855;28;20049;-70
2022/04/27 08:47:56;;;;;;;11.18;5.38;;;;;;;16.70;47.89;93849.63;4991928;28;20490;-70
2022/04/27 08:50:24;;;;;;;5.15;3.70;;;;;;;17.15;46.18;93851.78;4985613;28;20081;-69
2022/04/27 08:52:50;;;;;;;5.00;4.03;;;;;;;16.65;46.01;93847.22;4994660;28;20034;-70
2022/04/27 08:55:17;;;;;;;8.48;4.63;;;;;;;16.85;45.83;93831.13;4986341;28;20034;-69
2022/04/27 08:57:43;;;;;;;6.75;3.55;;;;;;;17.27;44.15;93848.16;4984312;28;20034;-69
2022/04/27 09:00:12;;;;;;;3.92;3.08;;;;;;;17.44;44.55;93847.75;4969581;28;20040;-69
2022/04/27 09:02:37;;;;;;;7.60;3.35;;;;;;;17.53;44.84;93834.84;4980937;28;20030;-69
2022/04/27 09:05:12;;;;;;;12.23;5.70;;;;;;;17.85;45.19;93835.41;4985097;28;20374;-69
2022/04/27 09:07:37;;;;;;;14.23;7.97;;;;;;;18.03;44.44;93833.84;4982632;28;20100;-71
2022/04/27 09:10:04;;;;;;;7.30;5.05;;;;;;;18.23;43.59;93828.41;4981853;28;20347;-70
2022/04/27 09:12:30;;;;;;;5.18;3.67;;;;;;;18.50;44.15;93824.59;4992473;28;20627;-69
2022/04/27 09:15:04;;;;;;;6.35;4.10;;;;;;;18.24;43.29;93829.94;4983436;28;20069;-71
2022/04/27 09:23:05;;;;;;;5.65;3.63;;;;;;;18.16;43.69;93822.88;5010769;28;20347;-70
2022/04/27 09:25:32;;;;;;;8.02;3.95;;;;;;;18.20;43.63;93815.66;5008182;28;20037;-70
2022/04/27 09:28:01;;;;;;;5.82;3.58;;;;;;;18.55;43.04;93816.19;5006668;28;20523;-69
2022/04/27 09:30:28;;;;;;;4.82;3.47;;;;;;;18.77;42.36;93815.38;5000261;28;20132;-69
2022/04/27 09:32:53;;;;;;;9.20;3.72;;;;;;;18.54;42.15;93806.56;5006705;28;20099;-71
2022/04/27 09:35:35;;;;;;;8.48;3.55;;;;;;;18.20;41.71;93802.97;5013511;28;20025;-70
2022/04/27 09:38:19;;;;;;;4.30;3.63;;;;;;;18.36;42.60;93810.91;4988710;28;20134;-70
2022/04/27 09:40:54;;;;;;;9.00;3.78;;;;;;;18.63;41.11;93807.06;5011992;28;20177;-70
2022/04/27 09:43:49;;;;;;;5.50;3.22;;;;;;;18.40;41.21;93815.22;4989140;28;20520;-71
2022/04/27 09:46:22;;;;;;;8.25;3.20;;;;;;;18.51;40.35;93804.59;4990234;28;20066;-69
2022/04/27 09:49:07;;;;;;;13.77;3.70;;;;;;;18.41;41.16;93802.53;4989569;28;20029;-70
2022/04/27 09:51:34;;;;;;;6.55;3.35;;;;;;;17.85;41.21;93802.34;4988115;28;20046;-70
2022/04/27 09:54:00;;;;;;;7.40;3.13;;;;;;;17.95;41.75;93797.19;4978592;28;20506;-70
2022/04/27 09:56:31;;;;;;;5.97;3.40;;;;;;;18.33;42.57;93790.84;4991556;28;20022;-69
2022/04/27 09:59:00;;;;;;;4.95;3.83;;;;;;;18.30;41.46;93788.13;4983261;28;20084;-70
2022/04/27 10:01:26;;;;;;;4.25;3.15;;;;;;;17.78;41.70;93794.19;4982035;28;20034;-70
2022/04/27 10:03:57;;;;;;;5.13;3.22;;;;;;;17.80;41.92;93789.19;4980921;28;20026;-70
2022/04/27 10:06:23;;;;;;;3.75;3.15;;;;;;;17.93;41.81;93798.66;4989305;28;20103;-69
2022/04/27 10:08:51;;;;;;;6.75;3.70;;;;;;;17.70;41.75;93797.88;4985611;28;20421;-71
2022/04/27 10:11:17;;;;;;;5.93;3.10;;;;;;;17.54;41.98;93787.22;4980383;28;20029;-70
2022/04/27 10:13:43;;;;;;;4.75;3.22;;;;;;;17.64;41.92;93786.66;4984692;28;20098;-71
2022/04/27 10:16:09;;;;;;;8.43;3.70;;;;;;;17.53;42.28;93796.44;4976414;28;21400;-69
2022/04/27 10:18:34;;;;;;;5.72;3.03;;;;;;;17.42;42.53;93787.38;4979780;28;20088;-70
2022/04/27 10:21:04;;;;;;;5.28;3.45;;;;;;;17.25;41.79;93785.94;4981145;28;20406;-69
2022/04/27 10:23:32;;;;;;;4.60;2.88;;;;;;;17.66;41.85;93778.19;4982360;28;20536;-69
2022/04/27 10:26:25;;;;;;;5.78;3.45;;;;;;;17.45;41.94;93789.38;4987301;28;20485;-70
2022/04/27 10:28:56;;;;;;;6.97;3.15;;;;;;;17.48;41.56;93785.97;4990834;28;20280;-70
2022/04/27 10:31:40;;;;;;;4.72;2.78;;;;;;;17.45;41.77;93784.75;4986217;28;20523;-70
2022/04/27 10:34:17;;;;;;;6.47;2.88;;;;;;;17.54;42.49;93782.63;4988886;28;20038;-69
2022/04/27 10:36:44;;;;;;;7.05;3.35;;;;;;;17.65;43.09;93772.03;4982056;28;20086;-69
2022/04/27 10:39:09;;;;;;;5.40;3.13;;;;;;;17.84;42.42;93780.06;4982604;28;20033;-69
2022/04/27 10:41:58;;;;;;;6.32;4.03;;;;;;;17.95;41.03;93770.28;4987769;28;20120;-69
2022/04/27 10:44:48;;;;;;;9.15;3.90;;;;;;;17.82;41.18;93771.56;4986407;28;20133;-69
2022/04/27 10:47:18;;;;;;;6.68;3.65;;;;;;;17.80;42.08;93749.63;4986587;28;20037;-69
2022/04/27 10:49:48;;;;;;;6.57;4.13;;;;;;;18.31;41.66;93762.75;4987013;28;20029;-70
2022/04/27 10:52:14;;;;;;;3.55;3.10;;;;;;;18.20;40.62;93753.72;4985312;28;20039;-70
2022/04/27 10:54:41;;;;;;;5.53;2.88;;;;;;;18.33;40.08;93741.66;4996326;28;20041;-70
2022/04/27 10:57:29;;;;;;;6.75;2.78;;;;;;;18.39;41.00;93737.47;4997469;28;20372;-70
2022/04/27 11:00:05;;;;;;;5.95;2.65;;;;;;;18.22;40.58;93746.09;4984306;28;20041;-70
2022/04/27 11:02:44;;;;;;;35.22;3.67;;;;;;;18.16;41.01;93742.94;4978529;28;20034;-69
2022/04/27 11:05:13;;;;;;;5.65;3.15;;;;;;;18.22;40.03;93741.47;5003634;28;20063;-68
2022/04/27 11:07:54;;;;;;;7.03;3.50;;;;;;;18.15;40.62;93727.13;5003964;28;20151;-71
2022/04/27 11:10:21;;;;;;;5.78;3.10;;;;;;;18.18;39.94;93707.59;5006622;28;20025;-70
2022/04/27 11:12:55;;;;;;;4.13;2.50;;;;;;;18.31;41.00;93722.38;4999171;28;20095;-70
2022/04/27 11:15:23;;;;;;;4.32;2.83;;;;;;;18.34;40.85;93713.56;5005767;28;20044;-69
2022/04/27 11:17:55;;;;;;;3.97;2.90;;;;;;;18.48;40.61;93710.31;5001197;28;20099;-70
2022/04/27 11:20:32;;;;;;;3.95;2.55;;;;;;;18.43;39.75;93714.09;5005985;28;20037;-69
2022/04/27 11:22:59;;;;;;;2.33;2.13;;;;;;;18.52;39.88;93711.91;5005588;28;21325;-71
2022/04/27 11:25:32;;;;;;;2.72;2.30;;;;;;;18.39;39.27;93707.84;5020469;28;20044;-70
2022/04/27 11:27:59;;;;;;;4.43;2.60;;;;;;;18.50;40.25;93702.63;5005076;28;20047;-69
2022/04/27 11:30:26;;;;;;;3.33;2.45;;;;;;;18.71;39.98;93706.41;5003821;28;20125;-68
2022/04/27 11:32:52;;;;;;;3.10;2.60;;;;;;;18.76;39.30;93708.78;5005219;28;20038;-69
2022/04/27 11:35:21;;;;;;;5.13;2.53;;;;;;;19.17;45.33;93695.34;5008178;28;20024;-69
2022/04/27 11:37:47;;;;;;;3.38;3.05;;;;;;;19.51;42.95;93690.69;5006473;28;20082;-70
2022/04/27 11:40:17;;;;;;;3.45;2.25;;;;;;;19.25;39.39;93695.06;5006543;28;20045;-70
2022/04/27 11:42:48;;;;;;;4.82;2.85;;;;;;;19.15;39.90;93689.56;5009680;28;20038;-70
2022/04/27 11:45:18;;;;;;;7.22;2.58;;;;;;;19.15;39.20;93689.56;5010186;28;20041;-69
2022/04/27 11:47:58;;;;;;;2.63;2.13;;;;;;;19.20;39.51;93683.84;4987101;28;20073;-69
2022/04/27 11:50:24;;;;;;;2.22;2.03;;;;;;;19.29;39.91;93677.00;4985050;28;20555;-70